Time;durP1;ratioP1;P1;durP2;ratioP2;P2;SDS_P1;SDS_P2;PMS_P1;PMS_P2;Temp;Humidity;BMP_temperature;BMP_pressure;BME280_temperature;BME280_humidity;BME280_pressure;Samples;Min_cycle;Max_cycle;Signal;HPM_P1;HPM_P2
2024/01/26 00:03:24;;;;;;;13.20;3.30;;;;;;;4.03;80.74;99398.46;226859;1274;22561;-78
2024/01/26 00:08:28;;;;;;;10.90;2.70;;;;;;;4.03;80.82;99402.09;226843;1273;25249;-77
2024/01/26 00:13:31;;;;;;;10.50;2.80;;;;;;;4.04;80.79;99405.33;226842;1271;22534;-78
2024/01/26 00:18:34;;;;;;;10.10;2.30;;;;;;;4.05;80.49;99409.77;226527;1274;22563;-78
2024/01/26 00:23:37;;;;;;;12.30;3.00;;;;;;;4.07;80.53;99416.59;226853;1274;22566;-77
2024/01/26 00:28:41;;;;;;;12.40;2.50;;;;;;;4.08;80.35;99421.34;226875;1274;22562;-76
2024/01/26 00:33:43;;;;;;;9.50;2.60;;;;;;;4.09;80.24;99429.11;226729;1274;22572;-76
2024/01/26 00:38:46;;;;;;;10.50;2.60;;;;;;;4.10;80.13;99430.05;226969;1272;22547;-77
2024/01/26 00:43:48;;;;;;;13.20;2.90;;;;;;;4.10;80.21;99434.95;226843;1274;22543;-77
2024/01/26 00:48:51;;;;;;;9.70;3.10;;;;;;;4.09;80.22;99443.37;226824;1274;22596;-79
2024/01/26 00:53:53;;;;;;;10.10;2.70;;;;;;;4.10;80.12;99453.45;226790;1272;22914;-77
2024/01/26 00:58:56;;;;;;;10.40;2.60;;;;;;;4.09;80.21;99464.36;226941;1257;22539;-77
2024/01/26 01:03:59;;;;;;;6.60;1.70;;;;;;;4.06;80.05;99461.48;226939;1274;22532;-78
2024/01/26 01:09:02;;;;;;;5.30;1.80;;;;;;;4.02;79.60;99458.98;226875;1274;22704;-77
2024/01/26 01:14:05;;;;;;;5.30;1.60;;;;;;;3.97;79.45;99468.48;226444;1274;24414;-78
2024/01/26 01:19:07;;;;;;;9.30;1.60;;;;;;;3.92;79.06;99467.49;226979;1273;22566;-76
2024/01/26 01:24:10;;;;;;;11.90;2.20;;;;;;;3.86;79.01;99468.88;226865;1274;22545;-77
2024/01/26 01:29:13;;;;;;;6.30;1.90;;;;;;;3.82;79.15;99479.33;226729;1274;22549;-76
2024/01/26 01:34:15;;;;;;;12.10;2.40;;;;;;;3.79;79.42;99490.21;227030;1272;22539;-76
2024/01/26 01:39:18;;;;;;;8.70;1.90;;;;;;;3.77;79.54;99498.06;227046;1263;22550;-77
2024/01/26 01:44:20;;;;;;;8.50;2.00;;;;;;;3.75;79.52;99502.87;226873;1274;22536;-77
2024/01/26 01:49:24;;;;;;;8.90;2.50;;;;;;;3.74;79.73;99501.56;226872;1274;24285;-77
2024/01/26 01:54:29;;;;;;;11.10;2.70;;;;;;;3.73;79.94;99495.55;226906;1274;22654;-77
2024/01/26 01:59:33;;;;;;;7.60;2.70;;;;;;;3.71;80.20;99495.96;226857;1274;22554;-76
2024/01/26 02:04:36;;;;;;;6.30;2.40;;;;;;;3.66;80.36;99493.71;226637;1270;22536;-77
2024/01/26 02:09:38;;;;;;;7.40;2.20;;;;;;;3.61;80.39;99498.00;226657;1274;22598;-77
2024/01/26 02:14:40;;;;;;;5.20;1.70;;;;;;;3.54;80.42;99494.61;226705;1274;24364;-76
2024/01/26 02:19:43;;;;;;;6.30;1.70;;;;;;;3.42;80.21;99501.27;226720;1274;22557;-77
2024/01/26 02:24:45;;;;;;;5.30;1.70;;;;;;;3.31;80.18;99497.98;226797;1273;22573;-76
2024/01/26 02:29:48;;;;;;;8.60;1.70;;;;;;;3.24;80.22;99502.82;227029;1273;22563;-77
2024/01/26 02:34:50;;;;;;;7.00;1.30;;;;;;;3.21;80.49;99506.64;226849;1273;22589;-77
2024/01/26 02:39:53;;;;;;;9.30;2.10;;;;;;;3.19;80.53;99507.52;226869;1274;22637;-76
2024/01/26 02:44:55;;;;;;;4.50;1.50;;;;;;;3.18;80.65;99503.94;226774;1273;22540;-77
2024/01/26 02:49:57;;;;;;;9.10;2.20;;;;;;;3.19;80.49;99502.47;227047;1273;26063;-77
2024/01/26 02:55:00;;;;;;;4.90;2.20;;;;;;;3.17;80.82;99499.26;226735;1274;24213;-78
2024/01/26 03:00:04;;;;;;;7.90;2.60;;;;;;;3.16;80.93;99501.83;226818;1274;24222;-77
2024/01/26 03:05:07;;;;;;;8.50;2.30;;;;;;;3.15;81.46;99502.23;226851;1274;22541;-77
2024/01/26 03:10:09;;;;;;;5.00;2.20;;;;;;;3.14;81.70;99503.75;226821;1274;22533;-77
2024/01/26 03:15:12;;;;;;;6.30;2.70;;;;;;;3.09;81.88;99504.81;226671;1274;22642;-77
2024/01/26 03:20:14;;;;;;;8.10;2.50;;;;;;;3.03;82.06;99500.09;226807;1274;22547;-77
2024/01/26 03:25:16;;;;;;;9.10;2.00;;;;;;;2.96;82.21;99499.77;226856;1274;25533;-76
2024/01/26 03:30:19;;;;;;;9.60;1.90;;;;;;;2.92;82.18;99509.16;226828;1274;22659;-75
2024/01/26 03:35:21;;;;;;;6.20;1.90;;;;;;;2.91;82.24;99520.90;226660;1274;22602;-76
2024/01/26 03:40:24;;;;;;;7.80;2.10;;;;;;;2.93;82.28;99522.85;226808;1273;26110;-76
2024/01/26 03:45:26;;;;;;;7.60;2.20;;;;;;;2.92;82.27;99533.73;226688;1274;22670;-76
2024/01/26 03:50:28;;;;;;;9.80;2.00;;;;;;;2.90;82.29;99529.35;226734;1274;23010;-76
2024/01/26 03:55:31;;;;;;;7.50;2.30;;;;;;;2.87;82.46;99528.52;226756;1274;23281;-77
2024/01/26 04:00:34;;;;;;;8.90;3.40;;;;;;;2.80;82.33;99534.10;226644;1274;22570;-76
2024/01/26 04:05:36;;;;;;;8.50;3.20;;;;;;;2.72;82.61;99534.60;226687;1274;22543;-77
2024/01/26 04:10:38;;;;;;;10.80;3.10;;;;;;;2.67;83.06;99535.67;226809;1273;22544;-76
2024/01/26 04:15:40;;;;;;;9.70;3.80;;;;;;;2.64;83.12;99534.84;226855;1273;23831;-76
2024/01/26 04:20:43;;;;;;;16.30;4.20;;;;;;;2.63;83.36;99536.20;226850;1274;22568;-76
2024/01/26 04:25:46;;;;;;;7.90;3.30;;;;;;;2.58;83.50;99532.90;226736;1274;22652;-77
2024/01/26 04:30:49;;;;;;;10.70;3.60;;;;;;;2.54;83.66;99525.56;226629;1274;22570;-76
2024/01/26 04:35:51;;;;;;;13.80;4.40;;;;;;;2.49;83.80;99529.46;226633;1274;22548;-76
2024/01/26 04:40:53;;;;;;;12.30;4.40;;;;;;;2.37;83.74;99529.63;226929;1275;24932;-76
2024/01/26 04:45:56;;;;;;;11.00;4.50;;;;;;;2.25;83.93;99543.48;226793;1274;22551;-76
2024/01/26 04:50:58;;;;;;;12.20;4.40;;;;;;;2.17;84.22;99551.20;226814;1274;22552;-77
2024/01/26 04:56:01;;;;;;;15.30;4.90;;;;;;;2.17;84.45;99557.81;226839;1273;22548;-76
2024/01/26 05:01:04;;;;;;;13.80;4.60;;;;;;;2.21;84.48;99562.37;226709;1275;25256;-77
2024/01/26 05:06:06;;;;;;;15.10;4.20;;;;;;;2.28;84.60;99568.36;226647;1274;22657;-80
2024/01/26 05:11:09;;;;;;;13.30;5.10;;;;;;;2.37;84.62;99569.64;226613;1251;22569;-81
2024/01/26 05:16:11;;;;;;;14.70;5.00;;;;;;;2.43;84.62;99568.63;226614;1274;22739;-81
2024/01/26 05:21:13;;;;;;;15.00;5.30;;;;;;;2.49;84.67;99563.71;226799;1274;22566;-80
2024/01/26 05:26:17;;;;;;;15.20;6.00;;;;;;;2.53;84.76;99559.02;226691;1273;22563;-81
2024/01/26 05:31:20;;;;;;;15.90;5.40;;;;;;;2.57;84.63;99553.34;227002;1274;24246;-80
2024/01/26 05:36:22;;;;;;;14.30;5.30;;;;;;;2.61;84.65;99552.34;226741;1275;22572;-80
2024/01/26 05:41:24;;;;;;;15.80;6.30;;;;;;;2.63;84.70;99557.17;226726;1274;22539;-80
2024/01/26 05:46:26;;;;;;;16.30;5.80;;;;;;;2.64;84.59;99562.17;226660;1274;22546;-79
2024/01/26 05:51:28;;;;;;;14.30;5.30;;;;;;;2.63;84.51;99573.39;226935;1273;22601;-80
2024/01/26 05:56:30;;;;;;;14.70;6.20;;;;;;;2.64;84.57;99571.59;226817;1274;22543;-80
2024/01/26 06:01:32;;;;;;;13.50;6.10;;;;;;;2.64;84.65;99576.06;226960;1270;22545;-81
2024/01/26 06:06:34;;;;;;;13.60;5.90;;;;;;;2.67;84.61;99576.58;226921;1267;22637;-81
2024/01/26 06:11:36;;;;;;;14.60;5.80;;;;;;;2.70;84.61;99581.52;226701;1274;22566;-80
2024/01/26 06:16:38;;;;;;;14.30;5.70;;;;;;;2.73;84.57;99576.61;226989;1273;22543;-80
2024/01/26 06:21:40;;;;;;;11.40;5.00;;;;;;;2.74;84.49;99576.83;226947;1273;22555;-81
2024/01/26 06:26:42;;;;;;;14.80;5.60;;;;;;;2.77;84.42;99579.40;226732;1274;22667;-80
2024/01/26 06:31:44;;;;;;;14.70;5.70;;;;;;;2.79;84.50;99583.77;226744;1270;24377;-80
2024/01/26 06:36:46;;;;;;;12.20;5.00;;;;;;;2.81;84.70;99587.46;226927;1273;22573;-80
2024/01/26 06:41:49;;;;;;;14.00;4.60;;;;;;;2.83;84.50;99597.89;226616;1274;22620;-81
2024/01/26 06:46:51;;;;;;;10.60;4.20;;;;;;;2.84;84.50;99600.42;226920;1274;22548;-80
2024/01/26 06:51:53;;;;;;;72.90;45.20;;;;;;;2.83;84.41;99612.48;226690;1270;22752;-80
2024/01/26 06:56:55;;;;;;;17.00;8.20;;;;;;;2.85;84.59;99612.73;226731;1260;22567;-79
2024/01/26 07:01:58;;;;;;;12.70;4.20;;;;;;;2.86;84.43;99610.17;226802;1267;22654;-82
2024/01/26 07:07:01;;;;;;;9.50;3.40;;;;;;;2.87;84.45;99612.55;226651;1257;22528;-82
2024/01/26 07:12:04;;;;;;;13.00;4.20;;;;;;;2.93;84.53;99620.98;226332;1267;22554;-80
2024/01/26 07:17:06;;;;;;;13.50;4.50;;;;;;;2.96;84.66;99631.16;226448;1267;22535;-79
2024/01/26 07:22:08;;;;;;;12.70;5.10;;;;;;;3.04;84.66;99628.47;226404;1257;22548;-79
2024/01/26 07:27:10;;;;;;;10.70;4.30;;;;;;;3.13;84.83;99626.31;226368;1267;23003;-79
2024/01/26 07:32:12;;;;;;;11.70;4.60;;;;;;;3.20;84.59;99622.48;225990;1274;23012;-79
2024/01/26 07:37:14;;;;;;;8.00;2.90;;;;;;;3.25;84.60;99619.29;225803;1267;24443;-79
2024/01/26 07:42:16;;;;;;;7.60;2.90;;;;;;;3.28;84.22;99624.66;225915;1251;23020;-79
2024/01/26 07:47:18;;;;;;;9.00;2.80;;;;;;;3.28;84.07;99625.34;225971;1261;22949;-79
2024/01/26 07:52:21;;;;;;;6.40;2.80;;;;;;;3.29;84.31;99627.17;225970;1274;27024;-78
2024/01/26 07:57:25;;;;;;;6.60;3.00;;;;;;;3.32;84.08;99627.60;226039;1274;22983;-79
2024/01/26 08:02:28;;;;;;;5.80;3.00;;;;;;;3.43;84.01;99619.05;225871;1267;22576;-78
2024/01/26 08:07:30;;;;;;;7.60;3.80;;;;;;;3.57;84.11;99614.34;226053;1267;25355;-79
2024/01/26 08:12:32;;;;;;;11.40;4.60;;;;;;;3.70;84.17;99603.52;226528;1268;22543;-79
2024/01/26 08:17:47;;;;;;;12.50;5.80;;;;;;;3.80;84.20;99605.96;226867;1274;22578;-80
2024/01/26 08:22:49;;;;;;;12.10;5.40;;;;;;;3.88;83.94;99611.55;226868;1274;22532;-79
2024/01/26 08:27:53;;;;;;;11.60;5.80;;;;;;;4.00;84.15;99617.45;226903;1262;22553;-79
2024/01/26 08:32:55;;;;;;;12.60;5.40;;;;;;;4.11;84.20;99616.01;226844;1269;22662;-80
2024/01/26 08:37:58;;;;;;;13.80;5.20;;;;;;;4.24;83.95;99610.38;226847;1266;22566;-79
2024/01/26 08:43:00;;;;;;;9.50;4.10;;;;;;;4.33;83.87;99601.04;226464;1263;343688;-80
2024/01/26 08:48:02;;;;;;;9.50;4.40;;;;;;;4.41;83.59;99599.89;226713;1268;22553;-80
2024/01/26 08:53:04;;;;;;;11.60;4.80;;;;;;;4.46;83.59;99593.87;226445;1267;22551;-79
2024/01/26 08:58:06;;;;;;;11.00;5.30;;;;;;;4.51;83.67;99591.67;226527;1267;22625;-79
2024/01/26 09:03:08;;;;;;;11.90;5.30;;;;;;;4.61;83.65;99586.33;226585;1270;22582;-78
2024/01/26 09:08:10;;;;;;;14.70;5.50;;;;;;;4.75;83.80;99587.00;226256;1267;24420;-79
2024/01/26 09:13:12;;;;;;;13.00;6.00;;;;;;;4.92;83.83;99588.55;226404;1275;22639;-79
2024/01/26 09:18:14;;;;;;;20.10;10.50;;;;;;;5.02;83.28;99590.42;226032;1251;25145;-80
2024/01/26 09:23:18;;;;;;;15.10;6.10;;;;;;;5.11;83.34;99589.84;226364;1259;26050;-80
2024/01/26 09:28:20;;;;;;;18.10;6.60;;;;;;;5.23;83.27;99590.04;226480;1270;25475;-80
2024/01/26 09:33:22;;;;;;;14.30;6.40;;;;;;;5.28;82.85;99580.43;226599;1271;22552;-80
2024/01/26 09:38:25;;;;;;;11.10;5.50;;;;;;;5.40;82.73;99583.84;226619;1271;22572;-79
2024/01/26 09:43:27;;;;;;;13.70;6.80;;;;;;;5.53;82.43;99575.09;226155;1263;22585;-80
2024/01/26 09:48:32;;;;;;;14.20;6.40;;;;;;;5.66;82.38;99570.95;226287;1273;22654;-79
2024/01/26 09:53:35;;;;;;;13.50;6.20;;;;;;;5.75;82.05;99573.48;226052;1274;22631;-79
2024/01/26 09:58:37;;;;;;;12.70;4.70;;;;;;;5.88;81.65;99575.79;226196;1255;23224;-80
2024/01/26 10:03:41;;;;;;;11.20;4.30;;;;;;;5.96;81.42;99574.71;226344;1261;22539;-81
2024/01/26 10:08:43;;;;;;;12.40;4.00;;;;;;;5.98;80.84;99564.11;226168;1266;22551;-82
2024/01/26 10:13:45;;;;;;;9.20;3.40;;;;;;;6.07;81.02;99552.13;225747;1267;23932;-81
2024/01/26 10:18:48;;;;;;;10.50;3.40;;;;;;;6.13;80.33;99546.61;225856;1274;26113;-82
2024/01/26 10:23:51;;;;;;;10.40;3.70;;;;;;;6.15;79.49;99542.94;225967;1267;22579;-82
2024/01/26 10:28:56;;;;;;;7.80;3.20;;;;;;;6.20;79.60;99539.84;225787;1268;22536;-81
2024/01/26 10:33:59;;;;;;;8.60;3.10;;;;;;;6.28;79.42;99536.86;225742;1273;23240;-80
2024/01/26 10:39:03;;;;;;;6.30;2.70;;;;;;;6.32;78.78;99524.05;226033;1273;25282;-82
2024/01/26 10:44:07;;;;;;;7.60;2.70;;;;;;;6.32;77.73;99519.31;226372;1272;22562;-76
2024/01/26 10:49:11;;;;;;;5.40;2.30;;;;;;;6.36;77.90;99510.19;226617;1270;22630;-81
2024/01/26 10:54:14;;;;;;;6.80;2.20;;;;;;;6.42;77.42;99497.89;226116;1272;22554;-82
2024/01/26 10:59:17;;;;;;;7.30;3.20;;;;;;;6.39;76.74;99485.20;226055;1259;22562;-81
2024/01/26 11:04:19;;;;;;;9.00;3.00;;;;;;;6.40;76.51;99474.31;225954;1254;24358;-82
2024/01/26 11:09:22;;;;;;;7.00;2.80;;;;;;;6.68;76.58;99470.70;225844;1259;22699;-83
2024/01/26 11:14:27;;;;;;;7.90;2.70;;;;;;;6.90;75.26;99466.85;225854;1266;22618;-83
2024/01/26 11:19:31;;;;;;;5.40;2.50;;;;;;;7.02;74.38;99467.79;226020;1251;23197;-82
2024/01/26 11:24:34;;;;;;;8.10;2.60;;;;;;;7.12;74.02;99466.45;226136;1267;22559;-81
2024/01/26 11:29:38;;;;;;;7.20;1.90;;;;;;;7.24;73.83;99471.95;226672;1267;22592;-82
2024/01/26 11:34:41;;;;;;;5.70;2.00;;;;;;;7.21;73.10;99457.23;226278;1266;22549;-82
2024/01/26 11:39:44;;;;;;;6.50;2.60;;;;;;;7.23;73.05;99448.73;226601;1268;22573;-79
2024/01/26 11:45:07;;;;;;;9.70;2.10;;;;;;;7.30;72.36;99441.25;226637;1270;22647;-80
2024/01/26 11:50:11;;;;;;;6.20;1.80;;;;;;;7.23;71.83;99448.95;226753;1251;22551;-78
2024/01/26 11:55:13;;;;;;;5.70;1.90;;;;;;;7.14;70.46;99446.70;226779;1268;22563;-82
2024/01/26 12:00:18;;;;;;;4.10;1.70;;;;;;;7.10;71.41;99426.44;226851;1273;22963;-83
2024/01/26 12:05:22;;;;;;;9.90;2.00;;;;;;;7.12;71.76;99416.56;226616;1268;23106;-83
2024/01/26 12:10:25;;;;;;;7.70;1.80;;;;;;;7.19;70.89;99405.69;226555;1254;22559;-82
2024/01/26 12:15:31;;;;;;;8.00;1.90;;;;;;;7.03;69.71;99394.86;226562;1266;22562;-83
2024/01/26 12:20:34;;;;;;;5.90;2.10;;;;;;;6.97;71.17;99379.82;226835;1256;22591;-74
2024/01/26 12:25:36;;;;;;;5.20;2.20;;;;;;;7.05;71.19;99356.60;226889;1271;22543;-84
2024/01/26 12:30:38;;;;;;;20.60;13.10;;;;;;;7.12;71.10;99342.46;226663;1274;22555;-83
2024/01/26 12:35:41;;;;;;;6.30;2.60;;;;;;;7.12;70.98;99334.45;226741;1259;22552;-82
2024/01/26 12:40:44;;;;;;;7.40;2.40;;;;;;;7.05;70.12;99331.08;226682;1258;24897;-83
2024/01/26 12:45:46;;;;;;;7.60;2.30;;;;;;;6.95;70.35;99317.05;226609;1262;22558;-85
2024/01/26 12:50:48;;;;;;;11.60;2.90;;;;;;;6.87;69.92;99302.81;226839;1272;22555;-84
2024/01/26 12:55:51;;;;;;;15.80;8.10;;;;;;;6.74;69.75;99288.06;226447;1259;22549;-84
2024/01/26 13:00:54;;;;;;;10.20;2.60;;;;;;;6.73;70.22;99277.02;226668;1268;22542;-88
2024/01/26 13:05:56;;;;;;;8.20;2.90;;;;;;;6.70;70.17;99271.78;226795;1267;25287;-85
2024/01/26 13:10:58;;;;;;;7.30;2.70;;;;;;;6.70;70.63;99255.01;226744;1272;22570;-84
2024/01/26 13:16:00;;;;;;;8.00;3.30;;;;;;;6.68;70.01;99242.10;226675;1270;22543;-83
2024/01/26 13:21:03;;;;;;;7.60;2.30;;;;;;;6.69;70.32;99241.18;226714;1262;23062;-84
2024/01/26 13:26:05;;;;;;;7.90;2.50;;;;;;;6.76;70.35;99227.36;226673;1271;22564;-84
2024/01/26 13:31:07;;;;;;;8.10;2.70;;;;;;;6.77;70.02;99220.94;226675;1267;22563;-85
2024/01/26 13:36:10;;;;;;;11.60;3.60;;;;;;;6.77;70.04;99219.59;226975;1274;22587;-85
2024/01/26 13:41:12;;;;;;;13.60;6.70;;;;;;;6.67;69.64;99210.86;226815;1259;22575;-77
2024/01/26 13:46:14;;;;;;;7.40;3.50;;;;;;;6.57;69.15;99214.33;226831;1268;22562;-82
2024/01/26 13:51:17;;;;;;;9.10;3.20;;;;;;;6.45;69.33;99203.28;226387;1253;22565;-83
2024/01/26 13:56:19;;;;;;;8.20;3.50;;;;;;;6.37;69.38;99198.11;226612;1255;22543;-83
2024/01/26 14:01:21;;;;;;;8.40;3.70;;;;;;;6.31;69.77;99188.54;226712;1266;22619;-84
2024/01/26 14:06:23;;;;;;;9.10;3.60;;;;;;;6.26;69.39;99172.41;226684;1268;22551;-77
2024/01/26 14:11:25;;;;;;;8.30;3.80;;;;;;;6.18;69.42;99157.54;226497;1274;24884;-79
2024/01/26 14:16:27;;;;;;;10.30;4.10;;;;;;;6.10;69.68;99153.81;226690;1268;22545;-78
2024/01/26 14:21:31;;;;;;;8.90;3.70;;;;;;;6.00;69.47;99152.12;226532;1270;22545;-79
2024/01/26 14:26:33;;;;;;;9.40;3.70;;;;;;;5.89;69.23;99148.66;226575;1267;22553;-79
2024/01/26 14:31:35;;;;;;;9.40;3.40;;;;;;;5.82;69.38;99144.02;226744;1271;25304;-78
2024/01/26 14:36:38;;;;;;;11.20;4.30;;;;;;;5.78;69.43;99134.90;226611;1262;25352;-79
2024/01/26 14:41:40;;;;;;;8.40;4.00;;;;;;;5.73;69.59;99139.34;226790;1267;22560;-84
2024/01/26 14:46:42;;;;;;;9.60;3.70;;;;;;;5.69;69.77;99133.98;226863;1270;25488;-85
2024/01/26 14:51:45;;;;;;;11.70;4.30;;;;;;;5.63;70.02;99119.52;226446;1268;22581;-83
2024/01/26 14:56:47;;;;;;;11.20;5.20;;;;;;;5.59;69.90;99096.54;226323;1267;22672;-82
2024/01/26 15:01:50;;;;;;;10.50;4.80;;;;;;;5.53;70.31;99089.95;226290;1274;22526;-81
2024/01/26 15:06:52;;;;;;;11.20;4.90;;;;;;;5.45;69.96;99083.97;226487;1269;22579;-80
2024/01/26 15:11:57;;;;;;;12.70;4.80;;;;;;;5.37;70.12;99064.23;226283;1271;22561;-82
2024/01/26 15:17:02;;;;;;;12.70;5.70;;;;;;;5.31;70.66;99061.51;226623;1268;22555;-82
2024/01/26 15:22:05;;;;;;;10.40;4.60;;;;;;;5.25;70.84;99052.16;226204;1274;25087;-81
2024/01/26 15:27:08;;;;;;;11.20;4.80;;;;;;;5.17;71.14;99038.10;226610;1261;22579;-81
2024/01/26 15:32:13;;;;;;;10.60;5.20;;;;;;;5.10;71.76;99029.00;226723;1273;22543;-82
2024/01/26 15:37:15;;;;;;;14.90;6.30;;;;;;;5.03;72.07;99021.96;226744;1272;23287;-82
2024/01/26 15:42:18;;;;;;;13.10;5.60;;;;;;;4.95;72.16;99014.34;226837;1273;22681;-82
2024/01/26 15:47:20;;;;;;;14.40;6.10;;;;;;;4.87;73.04;99013.48;226794;1274;22501;-83
2024/01/26 15:52:28;;;;;;;12.40;6.20;;;;;;;4.81;72.84;99003.98;226959;1274;22771;-83
2024/01/26 15:57:38;;;;;;;12.30;6.00;;;;;;;4.77;73.25;98995.80;226906;1271;22636;-83
2024/01/26 16:02:41;;;;;;;14.30;6.70;;;;;;;4.74;73.23;98991.47;226901;1271;22555;-82
2024/01/26 16:07:43;;;;;;;13.80;6.80;;;;;;;4.69;73.59;98978.80;226825;1274;25946;-83
2024/01/26 16:12:45;;;;;;;16.10;5.80;;;;;;;4.65;73.61;98980.58;226786;1274;22559;-83
2024/01/26 16:17:47;;;;;;;12.20;5.60;;;;;;;4.60;73.92;98980.30;226913;1274;22573;-83
2024/01/26 16:22:50;;;;;;;14.30;7.00;;;;;;;4.59;74.18;98981.54;226850;1274;22594;-83
2024/01/26 16:27:52;;;;;;;19.30;7.80;;;;;;;4.57;74.22;98964.25;226770;1274;24244;-83
2024/01/26 16:32:54;;;;;;;14.80;7.20;;;;;;;4.56;74.97;98951.81;226682;1274;22561;-82
2024/01/26 16:37:56;;;;;;;13.60;7.40;;;;;;;4.53;75.34;98946.45;226751;1274;25427;-83
2024/01/26 16:42:58;;;;;;;16.50;8.00;;;;;;;4.51;75.71;98940.27;226973;1270;22567;-83
2024/01/26 16:48:00;;;;;;;18.10;8.10;;;;;;;4.47;75.99;98932.36;226959;1272;22547;-83
2024/01/26 16:53:03;;;;;;;19.40;8.90;;;;;;;4.46;76.37;98922.92;226761;1260;22583;-82
2024/01/26 16:58:05;;;;;;;16.90;8.40;;;;;;;4.44;76.73;98922.54;226716;1274;22546;-84
2024/01/26 17:03:07;;;;;;;16.70;8.50;;;;;;;4.46;76.94;98917.48;226917;1274;22568;-82
2024/01/26 17:08:10;;;;;;;13.00;7.70;;;;;;;4.50;76.95;98907.90;226839;1274;22579;-83
2024/01/26 17:13:13;;;;;;;14.70;8.00;;;;;;;4.51;77.16;98898.87;226819;1274;22537;-84
2024/01/26 17:18:15;;;;;;;16.90;8.10;;;;;;;4.50;77.08;98896.39;226693;1274;22547;-83
2024/01/26 17:23:17;;;;;;;14.20;8.00;;;;;;;4.50;77.53;98886.36;226907;1271;25427;-82
2024/01/26 17:28:19;;;;;;;15.10;8.60;;;;;;;4.50;77.36;98888.65;226972;1271;22539;-83
2024/01/26 17:33:21;;;;;;;17.70;8.60;;;;;;;4.50;77.77;98886.04;226830;1274;22812;-82
2024/01/26 17:38:24;;;;;;;19.30;9.30;;;;;;;4.52;77.80;98884.88;226849;1274;24254;-83
2024/01/26 17:43:28;;;;;;;20.10;8.40;;;;;;;4.53;77.84;98880.24;226858;1274;22559;-83
2024/01/26 17:48:31;;;;;;;13.30;7.00;;;;;;;4.53;78.23;98880.19;226899;1271;22550;-81
2024/01/26 17:53:36;;;;;;;19.70;8.50;;;;;;;4.51;78.99;98874.14;226877;1274;22557;-82
2024/01/26 17:58:38;;;;;;;21.00;9.80;;;;;;;4.45;79.16;98874.84;226775;1274;24240;-84
2024/01/26 18:03:40;;;;;;;23.70;11.30;;;;;;;4.38;79.88;98868.96;226869;1271;22827;-84
2024/01/26 18:08:42;;;;;;;22.50;10.70;;;;;;;4.29;80.70;98870.70;226675;1274;22578;-84
2024/01/26 18:13:45;;;;;;;19.10;10.40;;;;;;;4.20;80.35;98860.88;226802;1258;22552;-82
2024/01/26 18:18:47;;;;;;;24.20;10.90;;;;;;;4.13;80.75;98848.67;226869;1253;22600;-83
2024/01/26 18:23:54;;;;;;;22.00;11.20;;;;;;;4.05;80.67;98839.33;226756;1267;22950;-83
2024/01/26 18:28:57;;;;;;;23.40;10.90;;;;;;;4.00;81.23;98832.20;226909;1271;24216;-82
2024/01/26 18:33:59;;;;;;;20.20;10.00;;;;;;;3.92;81.68;98817.73;226912;1271;22555;-83
2024/01/26 18:39:02;;;;;;;21.80;10.00;;;;;;;3.87;81.99;98813.64;226779;1274;24209;-83
2024/01/26 18:44:04;;;;;;;21.70;10.70;;;;;;;3.85;82.73;98825.18;226693;1274;22485;-84
2024/01/26 18:49:08;;;;;;;22.50;10.90;;;;;;;3.84;83.05;98837.42;226905;1274;24203;-82
2024/01/26 18:54:11;;;;;;;17.40;10.60;;;;;;;3.84;83.40;98822.70;226653;1267;24880;-85
2024/01/26 18:59:16;;;;;;;20.00;10.20;;;;;;;3.86;83.80;98818.25;226876;1274;22578;-82
2024/01/26 19:04:18;;;;;;;22.00;11.00;;;;;;;3.89;83.77;98812.08;226808;1274;22958;-82
2024/01/26 19:09:20;;;;;;;17.90;9.40;;;;;;;3.90;84.03;98804.86;226906;1274;22682;-83
2024/01/26 19:14:26;;;;;;;20.80;10.80;;;;;;;3.91;84.45;98806.68;226971;1270;22589;-84
2024/01/26 19:19:29;;;;;;;21.30;9.60;;;;;;;3.93;84.57;98801.11;226925;1271;22569;-81
2024/01/26 19:24:31;;;;;;;18.50;9.70;;;;;;;3.95;85.18;98787.52;226758;1274;25248;-82
2024/01/26 19:29:35;;;;;;;21.30;10.30;;;;;;;3.96;85.67;98786.16;226656;1274;24237;-82
2024/01/26 19:34:38;;;;;;;15.30;9.70;;;;;;;3.94;86.33;98791.57;227022;1271;22654;-84
2024/01/26 19:39:44;;;;;;;17.90;8.50;;;;;;;3.93;86.91;98800.20;226771;1274;22512;-84
2024/01/26 19:44:46;;;;;;;18.20;9.70;;;;;;;3.89;87.37;98807.04;226988;1271;25223;-82
2024/01/26 19:49:50;;;;;;;19.10;10.40;;;;;;;3.86;87.57;98814.45;226952;1270;22571;-83
2024/01/26 19:54:55;;;;;;;17.40;9.60;;;;;;;3.85;87.82;98824.00;226753;1274;22546;-83
2024/01/26 19:59:58;;;;;;;18.00;9.80;;;;;;;3.83;87.95;98837.08;226920;1272;22551;-82
2024/01/26 20:05:01;;;;;;;19.50;9.00;;;;;;;3.81;87.93;98838.23;226988;1271;22608;-82
2024/01/26 20:10:08;;;;;;;15.50;9.10;;;;;;;3.82;87.79;98847.88;226500;1271;22559;-81
2024/01/26 20:15:13;;;;;;;13.20;7.40;;;;;;;3.85;87.70;98853.90;226926;1270;22558;-82
2024/01/26 20:20:16;;;;;;;13.50;8.40;;;;;;;3.91;87.63;98862.99;226840;1273;22555;-84
2024/01/26 20:25:18;;;;;;;14.50;8.50;;;;;;;3.96;87.84;98871.43;226702;1274;22535;-84
2024/01/26 20:30:23;;;;;;;13.60;7.80;;;;;;;4.00;87.89;98872.44;226894;1272;22552;-84
2024/01/26 20:35:26;;;;;;;13.30;7.00;;;;;;;4.05;87.91;98866.80;226880;1269;22553;-83
2024/01/26 20:40:28;;;;;;;10.60;6.60;;;;;;;4.16;88.12;98867.75;226873;1274;22549;-84
2024/01/26 20:45:39;;;;;;;11.10;6.20;;;;;;;4.31;88.49;98874.64;226678;1274;260087;-83
2024/01/26 20:50:43;;;;;;;9.60;5.60;;;;;;;4.44;88.67;98878.09;226903;1271;22552;-84
2024/01/26 20:55:47;;;;;;;9.70;4.80;;;;;;;4.58;88.42;98884.27;225969;1280;22556;-82
2024/01/26 21:00:51;;;;;;;8.70;4.90;;;;;;;4.73;88.43;98889.45;225869;1280;22545;-84
2024/01/26 21:05:55;;;;;;;8.30;5.10;;;;;;;4.83;88.17;98887.73;225781;1280;22561;-83
2024/01/26 21:10:57;;;;;;;8.10;5.00;;;;;;;4.88;88.11;98890.06;225888;1280;22560;-84
2024/01/26 21:15:59;;;;;;;11.30;6.10;;;;;;;4.91;88.09;98892.89;225991;1279;22568;-85
2024/01/26 21:21:02;;;;;;;8.90;5.80;;;;;;;4.94;88.07;98897.02;225997;1280;24289;-83
2024/01/26 21:26:05;;;;;;;8.00;4.30;;;;;;;4.99;88.08;98905.42;226767;1274;22640;-84
2024/01/26 21:31:07;;;;;;;6.60;3.60;;;;;;;5.08;88.81;98913.71;226902;1272;22555;-84
2024/01/26 21:36:10;;;;;;;3.40;2.00;;;;;;;5.21;89.01;98915.41;226866;1274;22544;-83
2024/01/26 21:41:12;;;;;;;3.40;1.90;;;;;;;5.35;89.36;98919.86;226912;1273;22601;-84
2024/01/26 21:46:16;;;;;;;2.00;1.20;;;;;;;5.48;88.70;98930.59;226912;1274;22543;-85
2024/01/26 21:51:19;;;;;;;1.10;0.90;;;;;;;5.55;88.37;98948.16;226831;1274;22533;-82
2024/01/26 21:56:22;;;;;;;0.70;0.70;;;;;;;5.57;87.89;98960.11;226844;1274;25309;-83
2024/01/26 22:01:24;;;;;;;1.40;1.10;;;;;;;5.54;86.78;98978.93;226816;1274;22555;-81
2024/01/26 22:06:31;;;;;;;3.00;1.30;;;;;;;5.54;87.02;98973.86;226585;1274;22531;-82
2024/01/26 22:11:35;;;;;;;2.40;1.50;;;;;;;5.51;86.93;98989.46;226804;1273;22555;-83
2024/01/26 22:16:38;;;;;;;2.30;1.30;;;;;;;5.50;86.60;98995.70;226785;1270;22573;-83
2024/01/26 22:21:39;;;;;;;2.10;1.00;;;;;;;5.49;86.68;99023.91;226734;1274;22654;-81
2024/01/26 22:26:41;;;;;;;2.80;1.20;;;;;;;5.35;87.48;99030.71;226826;1274;24252;-80
2024/01/26 22:31:43;;;;;;;1.20;0.80;;;;;;;5.12;87.94;99032.11;226833;1274;22540;-79
2024/01/26 22:36:45;;;;;;;1.20;1.00;;;;;;;4.87;88.23;99036.23;226774;1274;22981;-80
2024/01/26 22:41:48;;;;;;;2.40;1.10;;;;;;;4.67;89.03;99037.10;226862;1274;22574;-81
2024/01/26 22:46:50;;;;;;;2.80;1.20;;;;;;;4.57;89.36;99045.17;226766;1274;22562;-81
2024/01/26 22:51:52;;;;;;;2.30;1.20;;;;;;;4.57;89.48;99061.00;226991;1272;22546;-82
2024/01/26 22:56:54;;;;;;;1.80;1.30;;;;;;;4.63;89.54;99071.52;226914;1274;22552;-82
2024/01/26 23:01:56;;;;;;;1.70;1.10;;;;;;;4.68;89.53;99091.27;226937;1274;22558;-84
2024/01/26 23:06:59;;;;;;;3.30;1.40;;;;;;;4.71;89.12;99119.94;226811;1274;22574;-84
2024/01/26 23:12:02;;;;;;;2.00;1.10;;;;;;;4.62;87.75;99145.55;227068;1270;22558;-83
2024/01/26 23:17:04;;;;;;;4.60;0.80;;;;;;;4.47;87.06;99166.57;227059;1274;22564;-86
2024/01/26 23:22:07;;;;;;;3.00;0.70;;;;;;;4.33;86.60;99175.73;226963;1272;22576;-84
2024/01/26 23:27:09;;;;;;;2.50;0.80;;;;;;;4.23;86.49;99172.63;227070;1272;25424;-84
2024/01/26 23:32:11;;;;;;;1.70;0.80;;;;;;;4.16;86.84;99184.10;226828;1274;22537;-84
2024/01/26 23:37:13;;;;;;;2.70;0.80;;;;;;;4.10;86.42;99191.45;227008;1272;22583;-84